createdAt,value
2018-09-11T00:01:11.064Z,4.90
2018-09-11T00:03:14.503Z,9.77
2018-09-11T00:05:23.559Z,9.20
2018-09-11T00:07:26.614Z,9.10
2018-09-11T00:09:30.207Z,7.80
2018-09-11T00:11:32.323Z,6.57
2018-09-11T00:13:43.865Z,10.60
2018-09-11T00:15:48.794Z,8.80
2018-09-11T00:17:54.146Z,8.53
2018-09-11T00:19:56.999Z,8.63
2018-09-11T00:21:59.752Z,6.73
2018-09-11T00:24:02.473Z,8.70
2018-09-11T00:26:05.096Z,12.10
2018-09-11T00:28:08.137Z,8.87
2018-09-11T00:30:11.085Z,11.17
2018-09-11T00:32:14.001Z,6.20
2018-09-11T00:34:17.083Z,6.53
2018-09-11T00:36:21.054Z,12.03
2018-09-11T00:38:23.902Z,7.17
2018-09-11T00:40:26.993Z,8.50
2018-09-11T00:42:29.734Z,7.23
2018-09-11T00:44:32.733Z,6.80
2018-09-11T00:46:36.160Z,10.30
2018-09-11T00:48:38.874Z,8.07
2018-09-11T00:50:41.434Z,9.53
2018-09-11T00:52:44.476Z,6.57
2018-09-11T00:54:57.757Z,9.90
2018-09-11T00:57:01.798Z,7.00
2018-09-11T00:59:09.059Z,8.20
2018-09-11T01:01:11.957Z,7.00
2018-09-11T01:03:18.980Z,9.30
2018-09-11T01:05:22.038Z,10.30
2018-09-11T01:07:26.013Z,7.13
2018-09-11T01:09:28.170Z,8.70
2018-09-11T01:11:30.670Z,10.57
2018-09-11T01:13:33.256Z,7.40
2018-09-11T01:15:35.382Z,8.90
2018-09-11T01:17:37.619Z,8.27
2018-09-11T01:19:39.821Z,7.40
2018-09-11T01:21:41.990Z,9.83
2018-09-11T01:23:44.131Z,9.37
2018-09-11T01:25:46.539Z,12.23
2018-09-11T01:27:48.715Z,10.73
2018-09-11T01:29:50.871Z,12.23
2018-09-11T01:31:53.031Z,12.90
2018-09-11T01:33:55.225Z,8.00
2018-09-11T01:35:57.490Z,8.57
2018-09-11T01:37:59.798Z,10.70
2018-09-11T01:40:01.955Z,9.03
2018-09-11T01:42:04.097Z,9.70
2018-09-11T01:44:06.582Z,15.93
2018-09-11T01:46:08.724Z,12.13
2018-09-11T01:48:10.907Z,11.73
2018-09-11T01:50:13.398Z,16.73
2018-09-11T01:52:15.539Z,12.00
2018-09-11T01:54:17.694Z,8.40
2018-09-11T01:56:19.848Z,18.90
2018-09-11T01:58:22.799Z,10.20
2018-09-11T02:00:25.206Z,7.63
2018-09-11T02:02:27.587Z,10.17
2018-09-11T02:04:29.730Z,9.93
2018-09-11T02:06:31.888Z,10.80
2018-09-11T02:08:34.040Z,16.67
2018-09-11T02:10:36.180Z,10.83
2018-09-11T02:12:38.465Z,10.50
2018-09-11T02:14:41.145Z,14.07
2018-09-11T02:16:43.444Z,11.20
2018-09-11T02:18:45.603Z,10.47
2018-09-11T02:20:47.705Z,10.80
2018-09-11T02:22:49.879Z,7.47
2018-09-11T02:24:52.019Z,14.40
2018-09-11T02:26:54.164Z,11.33
2018-09-11T02:28:56.359Z,14.00
2018-09-11T02:30:58.508Z,16.90
2018-09-11T02:33:00.676Z,8.87
2018-09-11T02:35:02.879Z,10.60
2018-09-11T02:37:05.043Z,16.40
2018-09-11T02:39:09.013Z,12.23
2018-09-11T02:41:11.150Z,10.20
2018-09-11T02:43:13.287Z,11.63
2018-09-11T02:45:15.454Z,10.83
2018-09-11T02:47:17.645Z,12.53
2018-09-11T02:49:19.810Z,10.50
2018-09-11T02:51:22.293Z,8.50
2018-09-11T02:53:24.460Z,9.50
2018-09-11T02:55:26.577Z,10.83
2018-09-11T02:57:28.958Z,12.33
2018-09-11T02:59:31.094Z,15.90
2018-09-11T03:01:33.241Z,19.13
2018-09-11T03:03:35.405Z,12.63
2018-09-11T03:05:37.538Z,12.00
2018-09-11T03:07:39.673Z,13.43
2018-09-11T03:09:42.175Z,15.10
2018-09-11T03:11:44.338Z,13.77
2018-09-11T03:13:46.494Z,10.80
2018-09-11T03:15:48.649Z,13.93
2018-09-11T03:17:50.826Z,13.17
2018-09-11T03:19:53.007Z,13.97
2018-09-11T03:21:55.414Z,11.57
2018-09-11T03:23:57.553Z,15.93
2018-09-11T03:25:59.707Z,19.20
2018-09-11T03:28:01.887Z,11.73
2018-09-11T03:30:04.250Z,13.40
2018-09-11T03:32:06.401Z,15.47
2018-09-11T03:34:08.542Z,12.63
2018-09-11T03:36:10.702Z,13.30
2018-09-11T03:38:12.872Z,11.53
2018-09-11T03:40:15.365Z,12.03
2018-09-11T03:42:17.554Z,14.63
2018-09-11T03:44:19.772Z,12.80
2018-09-11T03:46:21.866Z,13.17
2018-09-11T03:48:24.023Z,16.13
2018-09-11T03:50:26.348Z,12.87
2018-09-11T03:52:28.506Z,11.60
2018-09-11T03:54:30.650Z,11.70
2018-09-11T03:56:32.769Z,11.00
2018-09-11T03:58:34.913Z,13.63
2018-09-11T04:00:37.034Z,11.13
2018-09-11T04:02:39.158Z,14.77
2018-09-11T04:04:41.706Z,24.80
2018-09-11T04:06:43.864Z,18.13
2018-09-11T04:08:46.006Z,13.47
2018-09-11T04:10:48.506Z,13.27
2018-09-11T04:12:50.634Z,19.13
2018-09-11T04:14:52.792Z,10.57
2018-09-11T04:16:54.950Z,18.67
2018-09-11T04:18:57.098Z,12.30
2018-09-11T04:20:59.272Z,11.80
2018-09-11T04:23:01.530Z,18.83
2018-09-11T04:25:03.688Z,14.83
2018-09-11T04:27:05.833Z,15.13
2018-09-11T04:29:08.030Z,13.47
2018-09-11T04:31:10.194Z,14.27
2018-09-11T04:33:12.363Z,9.27
2018-09-11T04:35:14.759Z,18.37
2018-09-11T04:37:16.958Z,11.87
2018-09-11T04:39:19.110Z,12.10
2018-09-11T04:41:21.517Z,13.67
2018-09-11T04:43:23.657Z,11.93
2018-09-11T04:45:25.799Z,16.60
2018-09-11T04:47:27.947Z,13.17
2018-09-11T04:49:30.096Z,15.00
2018-09-11T04:51:32.239Z,17.20
2018-09-11T04:53:34.547Z,16.70
2018-09-11T04:55:36.683Z,17.67
2018-09-11T04:57:38.827Z,12.30
2018-09-11T04:59:40.963Z,16.03
2018-09-11T05:01:43.127Z,12.20
2018-09-11T05:03:45.313Z,14.47
2018-09-11T05:05:47.462Z,16.77
2018-09-11T05:07:49.651Z,13.70
2018-09-11T05:09:52.112Z,13.40
2018-09-11T05:11:54.296Z,22.80
2018-09-11T05:13:56.426Z,17.87
2018-09-11T05:15:58.954Z,13.10
2018-09-11T05:18:01.134Z,15.87
2018-09-11T05:20:03.298Z,16.67
2018-09-11T05:22:05.610Z,14.30
2018-09-11T05:24:07.742Z,15.60
2018-09-11T05:26:09.849Z,13.70
2018-09-11T05:28:12.076Z,15.43
2018-09-11T05:30:15.413Z,19.27
2018-09-11T05:32:17.566Z,18.87
2018-09-11T05:34:19.671Z,14.77
2018-09-11T05:36:21.846Z,11.10
2018-09-11T05:38:23.990Z,13.60
2018-09-11T05:40:26.154Z,14.70
2018-09-11T05:42:28.278Z,13.97
2018-09-11T05:44:30.674Z,22.03
2018-09-11T05:46:32.843Z,14.53
2018-09-11T05:48:34.932Z,17.40
2018-09-11T05:50:37.366Z,17.63
2018-09-11T05:52:39.913Z,14.83
2018-09-11T05:54:42.060Z,14.73
2018-09-11T05:56:44.174Z,9.67
2018-09-11T05:58:46.299Z,13.50
2018-09-11T06:00:48.415Z,15.73
2018-09-11T06:02:50.584Z,12.13
2018-09-11T06:04:52.718Z,11.93
2018-09-11T06:06:54.830Z,9.33
2018-09-11T06:08:56.958Z,10.47
2018-09-11T06:10:59.090Z,13.27
2018-09-11T06:13:01.202Z,18.20
2018-09-11T06:15:03.738Z,16.03
2018-09-11T06:17:05.887Z,11.60
2018-09-11T06:19:08.050Z,14.17
2018-09-11T06:21:10.178Z,11.47
2018-09-11T06:23:12.434Z,14.03
2018-09-11T06:25:14.579Z,16.33
2018-09-11T06:27:16.698Z,14.53
2018-09-11T06:29:18.888Z,11.73
2018-09-11T06:31:20.975Z,12.07
2018-09-11T06:33:23.574Z,9.90
2018-09-11T06:35:25.765Z,9.00
2018-09-11T06:37:27.830Z,9.97
2018-09-11T06:39:30.316Z,11.23
2018-09-11T06:41:32.520Z,10.40
2018-09-11T06:43:34.715Z,11.10
2018-09-11T06:45:36.935Z,18.20
2018-09-11T06:47:39.091Z,9.40
2018-09-11T06:49:41.222Z,10.67
2018-09-11T06:51:43.358Z,10.50
2018-09-11T06:53:45.507Z,10.60
2018-09-11T06:55:47.630Z,9.00
2018-09-11T06:57:49.792Z,14.93
2018-09-11T06:59:51.918Z,10.37
2018-09-11T07:01:54.070Z,14.40
2018-09-11T07:03:56.511Z,10.63
2018-09-11T07:05:58.623Z,10.20
2018-09-11T07:08:00.750Z,16.37
2018-09-11T07:10:02.975Z,12.60
2018-09-11T07:12:07.579Z,12.17
2018-09-11T07:14:10.287Z,12.00
2018-09-11T07:16:13.122Z,9.50
2018-09-11T07:18:16.112Z,11.53
2018-09-11T07:20:19.843Z,10.83
2018-09-11T07:22:22.179Z,10.10
2018-09-11T07:24:25.526Z,14.53
2018-09-11T07:26:28.691Z,10.73
2018-09-11T07:28:31.611Z,14.97
2018-09-11T07:30:33.750Z,18.10
2018-09-11T07:32:36.222Z,12.33
2018-09-11T07:34:38.325Z,9.93
2018-09-11T07:36:40.447Z,8.57
2018-09-11T07:38:42.557Z,14.07
2018-09-11T07:40:44.909Z,12.53
2018-09-11T07:42:47.005Z,10.40
2018-09-11T07:44:49.125Z,9.90
2018-09-11T07:46:51.270Z,12.50
2018-09-11T07:48:53.399Z,14.17
2018-09-11T07:50:55.809Z,12.60
2018-09-11T07:52:58.002Z,12.13
2018-09-11T07:55:00.107Z,12.87
2018-09-11T07:57:02.277Z,14.47
2018-09-11T07:59:04.414Z,15.10
2018-09-11T08:01:06.883Z,17.23
2018-09-11T08:03:09.143Z,15.67
2018-09-11T08:05:11.279Z,14.67
2018-09-11T08:07:13.390Z,14.10
2018-09-11T08:09:15.538Z,13.23
2018-09-11T08:11:17.700Z,19.50
2018-09-11T08:13:19.839Z,13.87
2018-09-11T08:15:21.942Z,16.93
2018-09-11T08:17:24.056Z,17.23
2018-09-11T08:19:26.219Z,12.70
2018-09-11T08:21:28.362Z,17.13
2018-09-11T08:23:30.540Z,15.13
2018-09-11T08:25:32.846Z,14.53
2018-09-11T08:27:34.986Z,19.43
2018-09-11T08:29:37.095Z,12.97
2018-09-11T08:31:39.242Z,17.23
2018-09-11T08:33:41.389Z,14.90
2018-09-11T08:35:43.562Z,12.53
2018-09-11T08:37:45.722Z,14.30
2018-09-11T08:39:47.877Z,13.37
2018-09-11T08:41:50.015Z,12.30
2018-09-11T08:43:52.459Z,15.30
2018-09-11T08:45:54.624Z,13.57
2018-09-11T08:47:56.799Z,11.57
2018-09-11T08:49:59.031Z,14.23
2018-09-11T08:52:01.272Z,13.67
2018-09-11T08:54:03.350Z,19.70
2018-09-11T08:56:05.799Z,13.27
2018-09-11T08:58:08.000Z,14.27
2018-09-11T09:00:10.511Z,14.13
2018-09-11T09:02:12.676Z,12.80
2018-09-11T09:04:14.799Z,13.83
2018-09-11T09:06:16.926Z,11.83
2018-09-11T09:08:19.079Z,15.10
2018-09-11T09:10:21.215Z,20.60
2018-09-11T09:12:23.343Z,15.63
2018-09-11T09:14:25.468Z,11.30
2018-09-11T09:16:27.626Z,13.50
2018-09-11T09:18:29.791Z,14.87
2018-09-11T09:20:32.222Z,11.30
2018-09-11T09:22:34.355Z,11.57
2018-09-11T09:24:36.439Z,11.83
2018-09-11T09:26:38.592Z,10.80
2018-09-11T09:28:40.714Z,11.60
2018-09-11T09:30:42.842Z,12.00
2018-09-11T09:32:45.219Z,12.30
2018-09-11T09:34:47.338Z,12.60
2018-09-11T09:36:49.569Z,9.63
2018-09-11T09:38:51.937Z,9.20
2018-09-11T09:40:54.166Z,10.30
2018-09-11T09:42:56.319Z,15.07
2018-09-11T09:44:58.722Z,10.33
2018-09-11T09:47:00.887Z,12.60
2018-09-11T09:49:03.015Z,8.63
2018-09-11T09:51:05.154Z,7.97
2018-09-11T09:53:07.307Z,13.37
2018-09-11T09:55:09.425Z,8.87
2018-09-11T09:57:11.547Z,11.17
2018-09-11T09:59:13.918Z,6.97
2018-09-11T10:01:22.474Z,9.00
2018-09-11T10:03:24.855Z,8.20
2018-09-11T10:05:27.251Z,15.67
2018-09-11T10:07:29.369Z,9.20
2018-09-11T10:09:31.495Z,9.23
2018-09-11T10:11:33.931Z,14.53
2018-09-11T10:13:36.078Z,8.50
2018-09-11T10:15:38.194Z,8.57
2018-09-11T10:17:40.651Z,10.20
2018-09-11T10:19:42.762Z,11.70
2018-09-11T10:21:44.879Z,10.60
2018-09-11T10:23:47.125Z,10.03
2018-09-11T10:25:49.242Z,8.27
2018-09-11T10:27:51.394Z,8.43
2018-09-11T10:29:53.526Z,11.00
2018-09-11T10:31:55.912Z,7.33
2018-09-11T10:33:58.058Z,8.87
2018-09-11T10:36:00.322Z,11.03
2018-09-11T10:38:02.456Z,8.43
2018-09-11T10:40:04.622Z,7.40
2018-09-11T10:42:06.762Z,8.73
2018-09-11T10:44:08.901Z,7.83
2018-09-11T10:46:11.044Z,10.30
2018-09-11T10:48:13.506Z,14.20
2018-09-11T10:50:15.662Z,11.07
2018-09-11T10:52:17.774Z,9.50
2018-09-11T10:54:19.905Z,10.97
2018-09-11T10:56:22.045Z,8.00
2018-09-11T10:58:24.317Z,9.13
2018-09-11T11:00:27.008Z,7.00
2018-09-11T11:02:29.136Z,11.10
2018-09-11T11:04:31.367Z,9.60
2018-09-11T11:06:33.679Z,9.23
2018-09-11T11:08:36.279Z,9.00
2018-09-11T11:10:38.465Z,8.37
2018-09-11T11:12:40.634Z,9.57
2018-09-11T11:14:42.747Z,14.10
2018-09-11T11:16:45.042Z,9.43
2018-09-11T11:18:47.353Z,11.13
2018-09-11T11:20:49.498Z,14.97
2018-09-11T11:22:51.898Z,11.80
2018-09-11T11:24:54.030Z,9.40
2018-09-11T11:26:56.260Z,12.70
2018-09-11T11:28:58.424Z,7.70
2018-09-11T11:31:00.582Z,8.20
2018-09-11T11:33:02.746Z,6.23
2018-09-11T11:35:05.099Z,7.90
2018-09-11T11:37:07.345Z,6.53
2018-09-11T11:39:10.512Z,9.87
2018-09-11T11:41:12.629Z,10.00
2018-09-11T11:43:14.817Z,7.37
2018-09-11T11:45:16.948Z,7.00
2018-09-11T11:47:19.939Z,10.63
2018-09-11T11:49:22.066Z,6.70
2018-09-11T11:51:24.257Z,6.70
2018-09-11T11:53:26.406Z,9.27
2018-09-11T11:55:28.603Z,9.10
2018-09-11T11:57:31.431Z,6.97
2018-09-11T11:59:33.571Z,7.80
2018-09-11T12:01:35.788Z,10.03
2018-09-11T12:03:37.880Z,8.53
2018-09-11T12:05:40.029Z,7.10
2018-09-11T12:07:42.180Z,10.50
2018-09-11T12:09:44.298Z,9.73
2018-09-11T12:11:46.917Z,8.80
2018-09-11T12:13:49.054Z,11.20
2018-09-11T12:15:51.193Z,11.20
2018-09-11T12:17:53.447Z,6.60
2018-09-11T12:19:55.598Z,6.63
2018-09-11T12:21:57.746Z,7.63
2018-09-11T12:24:00.178Z,8.53
2018-09-11T12:26:02.330Z,7.20
2018-09-11T12:28:04.523Z,8.10
2018-09-11T12:30:06.978Z,8.83
2018-09-11T12:32:09.092Z,17.50
2018-09-11T12:34:11.236Z,10.23
2018-09-11T12:36:13.386Z,9.90
2018-09-11T12:38:15.932Z,6.60
2018-09-11T12:40:18.079Z,7.60
2018-09-11T12:42:20.459Z,10.40
2018-09-11T12:44:22.557Z,9.77
2018-09-11T12:46:24.925Z,8.07
2018-09-11T12:48:26.919Z,9.23
2018-09-11T12:50:28.967Z,12.67
2018-09-11T12:52:31.148Z,6.93
2018-09-11T12:54:33.197Z,8.53
2018-09-11T12:56:35.350Z,10.93
2018-09-11T12:58:37.479Z,10.07
2018-09-11T13:00:39.665Z,10.33
2018-09-11T13:02:41.787Z,10.07
2018-09-11T13:04:43.907Z,8.93
2018-09-11T13:06:46.082Z,10.47
2018-09-11T13:08:54.892Z,8.10
2018-09-11T13:10:57.175Z,8.30
2018-09-11T13:12:59.335Z,9.00
2018-09-11T13:15:01.480Z,12.47
2018-09-11T13:17:03.586Z,11.13
2018-09-11T13:19:05.753Z,10.20
2018-09-11T13:21:08.003Z,8.03
2018-09-11T13:23:10.138Z,11.63
2018-09-11T13:25:12.333Z,11.27
2018-09-11T13:27:14.449Z,9.77
2018-09-11T13:29:16.538Z,9.40
2018-09-11T13:31:18.679Z,9.47
2018-09-11T13:33:20.803Z,13.97
2018-09-11T13:35:22.962Z,12.10
2018-09-11T13:37:25.167Z,10.43
2018-09-11T13:39:27.282Z,12.10
2018-09-11T13:41:29.459Z,12.57
2018-09-11T13:43:31.648Z,10.50
2018-09-11T13:45:33.778Z,9.77
2018-09-11T13:47:35.920Z,15.33
2018-09-11T13:49:38.065Z,10.17
2018-09-11T13:51:40.219Z,10.57
2018-09-11T13:53:42.346Z,11.07
2018-09-11T13:55:44.647Z,11.50
2018-09-11T13:57:46.794Z,10.13
2018-09-11T13:59:49.084Z,10.90
2018-09-11T14:01:51.702Z,11.60
2018-09-11T14:03:53.828Z,10.87
2018-09-11T14:05:55.971Z,10.63
2018-09-11T14:07:58.174Z,11.40
2018-09-11T14:10:00.305Z,10.67
2018-09-11T14:12:02.475Z,12.13
2018-09-11T14:14:04.732Z,10.50
2018-09-11T14:16:06.915Z,12.47
2018-09-11T14:18:09.056Z,10.47
2018-09-11T14:20:11.374Z,15.83
2018-09-11T14:22:13.516Z,11.57
2018-09-11T14:24:15.638Z,10.90
2018-09-11T14:26:17.779Z,14.53
2018-09-11T14:28:19.898Z,12.43
2018-09-11T14:30:22.054Z,13.90
2018-09-11T14:32:24.189Z,13.90
2018-09-11T14:34:26.480Z,16.63
2018-09-11T14:36:28.544Z,14.10
2018-09-11T14:38:30.739Z,13.83
2018-09-11T14:40:32.874Z,13.93
2018-09-11T14:42:35.002Z,19.20
2018-09-11T14:44:37.163Z,14.97
2018-09-11T14:46:39.373Z,17.93
2018-09-11T14:48:41.439Z,25.43
2018-09-11T14:50:43.594Z,18.47
2018-09-11T14:52:45.695Z,26.33
2018-09-11T14:54:47.815Z,34.20
2018-09-11T14:56:49.975Z,36.43
2018-09-11T14:58:52.107Z,34.77
2018-09-11T15:00:54.238Z,33.60
2018-09-11T15:02:56.371Z,39.37
2018-09-11T15:04:58.515Z,41.20
2018-09-11T15:07:00.658Z,45.87
2018-09-11T15:09:04.003Z,42.87
2018-09-11T15:11:06.154Z,43.63
2018-09-11T15:13:08.283Z,43.77
2018-09-11T15:15:10.491Z,45.40
2018-09-11T15:17:12.563Z,45.97
2018-09-11T15:19:15.686Z,47.67
2018-09-11T15:21:17.826Z,60.50
2018-09-11T15:23:20.030Z,58.83
2018-09-11T15:25:22.215Z,61.57
2018-09-11T15:27:24.366Z,60.13
2018-09-11T15:29:26.508Z,64.67
2018-09-11T15:31:28.662Z,58.80
2018-09-11T15:33:30.848Z,56.37
2018-09-11T15:35:37.204Z,45.13
2018-09-11T15:37:39.373Z,43.80
2018-09-11T15:39:41.518Z,32.63
2018-09-11T15:41:43.667Z,28.13
2018-09-11T15:43:45.818Z,26.30
2018-09-11T15:45:47.950Z,22.57
2018-09-11T15:47:50.122Z,21.23
2018-09-11T15:49:52.282Z,19.50
2018-09-11T15:51:54.434Z,15.37
2018-09-11T15:53:56.855Z,15.13
2018-09-11T15:55:58.986Z,15.10
2018-09-11T15:58:01.147Z,13.30
2018-09-11T16:00:03.687Z,13.23
2018-09-11T16:02:05.956Z,14.20
2018-09-11T16:04:08.115Z,12.50
2018-09-11T16:06:10.611Z,12.13
2018-09-11T16:08:12.765Z,12.70
2018-09-11T16:10:14.882Z,13.17
2018-09-11T16:12:17.071Z,11.83
2018-09-11T16:14:19.178Z,15.83
2018-09-11T16:16:21.291Z,12.80
2018-09-11T16:18:23.568Z,12.23
2018-09-11T16:20:25.736Z,13.30
2018-09-11T16:22:28.000Z,13.37
2018-09-11T16:24:30.389Z,12.83
2018-09-11T16:26:32.922Z,12.67
2018-09-11T16:28:35.051Z,13.23
2018-09-11T16:30:37.491Z,13.47
2018-09-11T16:32:39.687Z,16.00
2018-09-11T16:34:41.867Z,12.57
2018-09-11T16:36:44.182Z,13.30
2018-09-11T16:38:46.331Z,14.20
2018-09-11T16:40:48.451Z,15.00
2018-09-11T16:42:50.569Z,13.97
2018-09-11T16:44:52.688Z,15.90
2018-09-11T16:46:54.812Z,13.97
2018-09-11T16:48:56.979Z,14.80
2018-09-11T16:50:59.078Z,16.07
2018-09-11T16:53:01.206Z,14.50
2018-09-11T16:55:03.373Z,21.83
2018-09-11T16:57:05.528Z,15.77
2018-09-11T16:59:07.634Z,15.10
2018-09-11T17:01:09.762Z,15.30
2018-09-11T17:03:11.876Z,17.00
2018-09-11T17:05:14.058Z,15.07
2018-09-11T17:07:16.242Z,13.37
2018-09-11T17:09:18.354Z,16.40
2018-09-11T17:11:20.561Z,13.70
2018-09-11T17:13:22.725Z,16.17
2018-09-11T17:15:24.830Z,16.10
2018-09-11T17:17:26.936Z,16.60
2018-09-11T17:19:29.332Z,15.53
2018-09-11T17:21:31.429Z,16.10
2018-09-11T17:23:33.594Z,17.33
2018-09-11T17:25:35.710Z,15.43
2018-09-11T17:27:37.830Z,15.10
2018-09-11T17:29:39.914Z,16.40
2018-09-11T17:31:42.300Z,15.77
2018-09-11T17:33:44.402Z,16.10
2018-09-11T17:35:46.569Z,16.70
2018-09-11T17:37:48.671Z,16.80
2018-09-11T17:39:50.862Z,17.07
2018-09-11T17:41:52.979Z,16.33
2018-09-11T17:43:55.081Z,15.67
2018-09-11T17:45:57.189Z,23.03
2018-09-11T17:47:59.290Z,17.47
2018-09-11T17:50:01.758Z,15.97
2018-09-11T17:52:03.967Z,15.40
2018-09-11T17:54:06.087Z,16.70
2018-09-11T17:56:08.221Z,15.40
2018-09-11T17:58:10.325Z,15.40
2018-09-11T18:00:12.479Z,15.57
2018-09-11T18:02:14.558Z,16.23
2018-09-11T18:04:16.666Z,16.30
2018-09-11T18:06:18.779Z,15.30
2018-09-11T18:08:20.926Z,14.07
2018-09-11T18:10:23.030Z,16.40
2018-09-11T18:12:25.135Z,15.93
2018-09-11T18:14:27.523Z,22.80
2018-09-11T18:16:29.631Z,16.20
2018-09-11T18:18:31.739Z,16.20
2018-09-11T18:20:33.819Z,17.03
2018-09-11T18:22:35.905Z,15.37
2018-09-11T18:24:38.034Z,20.83
2018-09-11T18:26:40.178Z,16.67
2018-09-11T18:28:42.310Z,16.40
2018-09-11T18:30:44.411Z,17.63
2018-09-11T18:32:46.586Z,16.60
2018-09-11T18:34:49.019Z,16.30
2018-09-11T18:36:51.251Z,18.70
2018-09-11T18:38:53.391Z,18.03
2018-09-11T18:40:55.507Z,16.07
2018-09-11T18:42:57.606Z,16.70
2018-09-11T18:44:59.773Z,17.30
2018-09-11T18:47:02.234Z,17.80
2018-09-11T18:49:04.629Z,17.20
2018-09-11T18:51:06.740Z,16.67
2018-09-11T18:53:08.934Z,17.03
2018-09-11T18:55:11.056Z,16.37
2018-09-11T18:57:13.203Z,17.27
2018-09-11T18:59:15.627Z,17.17
2018-09-11T19:01:17.742Z,16.43
2018-09-11T19:03:20.002Z,16.70
2018-09-11T19:05:22.134Z,17.10
2018-09-11T19:07:24.281Z,18.30
2018-09-11T19:09:26.530Z,16.70
2018-09-11T19:11:28.693Z,16.20
2018-09-11T19:13:30.843Z,24.33
2018-09-11T19:15:33.047Z,17.50
2018-09-11T19:17:35.162Z,16.23
2018-09-11T19:19:37.274Z,16.80
2018-09-11T19:21:39.381Z,16.67
2018-09-11T19:23:41.626Z,16.70
2018-09-11T19:25:43.742Z,15.90
2018-09-11T19:27:45.867Z,18.33
2018-09-11T19:29:48.302Z,17.00
2018-09-11T19:31:50.479Z,17.03
2018-09-11T19:33:52.670Z,18.20
2018-09-11T19:35:54.922Z,16.10
2018-09-11T19:37:57.084Z,15.70
2018-09-11T19:39:59.203Z,17.43
2018-09-11T19:42:01.358Z,14.80
2018-09-11T19:44:03.978Z,16.87
2018-09-11T19:46:06.970Z,14.63
2018-09-11T19:48:09.154Z,15.37
2018-09-11T19:50:11.562Z,17.60
2018-09-11T19:52:13.658Z,15.07
2018-09-11T19:54:15.783Z,18.97
2018-09-11T19:56:18.055Z,14.80
2018-09-11T19:58:20.201Z,14.37
2018-09-11T20:00:22.380Z,15.03
2018-09-11T20:02:24.740Z,14.27
2018-09-11T20:04:27.002Z,14.50
2018-09-11T20:06:29.215Z,18.20
2018-09-11T20:08:31.664Z,14.43
2018-09-11T20:10:33.802Z,14.23
2018-09-11T20:12:35.942Z,14.67
2018-09-11T20:14:38.197Z,14.70
2018-09-11T20:16:40.406Z,14.27
2018-09-11T20:18:42.631Z,15.67
2018-09-11T20:20:45.470Z,14.60
2018-09-11T20:22:47.654Z,14.77
2018-09-11T20:24:49.854Z,14.50
2018-09-11T20:26:52.062Z,13.40
2018-09-11T20:28:54.574Z,10.90
2018-09-11T20:30:56.738Z,10.60
2018-09-11T20:32:58.998Z,9.97
2018-09-11T20:35:01.156Z,10.57
2018-09-11T20:37:06.735Z,11.90
2018-09-11T20:39:10.394Z,10.90
2018-09-11T20:41:12.672Z,10.97
2018-09-11T20:43:14.934Z,14.83
2018-09-11T20:45:17.122Z,11.93
2018-09-11T20:47:19.241Z,12.73
2018-09-11T20:49:21.382Z,11.10
2018-09-11T20:51:23.541Z,12.27
2018-09-11T20:53:25.673Z,10.53
2018-09-11T20:55:27.798Z,12.33
2018-09-11T20:57:30.198Z,10.67
2018-09-11T20:59:32.340Z,11.40
2018-09-11T21:01:34.437Z,12.30
2018-09-11T21:03:36.590Z,14.37
2018-09-11T21:05:38.711Z,16.00
2018-09-11T21:07:40.851Z,11.83
2018-09-11T21:09:43.019Z,16.13
2018-09-11T21:11:45.162Z,14.77
2018-09-11T21:13:47.329Z,14.10
2018-09-11T21:15:49.499Z,14.27
2018-09-11T21:17:51.743Z,12.30
2018-09-11T21:19:54.174Z,15.27
2018-09-11T21:21:56.354Z,16.20
2018-09-11T21:23:58.667Z,13.67
2018-09-11T21:26:00.825Z,14.83
2018-09-11T21:28:03.036Z,14.00
2018-09-11T21:30:05.333Z,13.73
2018-09-11T21:32:07.526Z,18.03
2018-09-11T21:34:09.681Z,17.70
2018-09-11T21:36:12.129Z,14.43
2018-09-11T21:38:14.320Z,13.70
2018-09-11T21:40:16.731Z,17.23
2018-09-11T21:42:19.233Z,16.53
2018-09-11T21:44:21.582Z,14.87
2018-09-11T21:46:23.943Z,14.30
2018-09-11T21:48:26.434Z,14.23
2018-09-11T21:50:28.654Z,16.10
2018-09-11T21:52:30.811Z,14.50
2018-09-11T21:54:32.949Z,14.93
2018-09-11T21:56:35.152Z,14.03
2018-09-11T21:58:37.314Z,14.60
2018-09-11T22:00:45.181Z,15.97
2018-09-11T22:02:47.377Z,14.93
2018-09-11T22:04:49.586Z,13.80
2018-09-11T22:06:51.755Z,15.30
2018-09-11T22:08:53.923Z,18.93
2018-09-11T22:10:56.074Z,20.10
2018-09-11T22:12:58.233Z,14.00
2018-09-11T22:15:00.433Z,15.70
2018-09-11T22:17:02.610Z,21.63
2018-09-11T22:19:04.850Z,16.53
2018-09-11T22:21:07.290Z,19.07
2018-09-11T22:23:09.426Z,15.00
2018-09-11T22:25:11.591Z,14.27
2018-09-11T22:27:13.750Z,16.37
2018-09-11T22:29:15.935Z,17.83
2018-09-11T22:31:18.083Z,14.80
2018-09-11T22:33:20.651Z,17.93
2018-09-11T22:35:22.818Z,16.53
2018-09-11T22:37:24.949Z,18.37
2018-09-11T22:39:27.363Z,16.67
2018-09-11T22:41:29.539Z,18.27
2018-09-11T22:43:31.712Z,17.93
2018-09-11T22:45:34.094Z,19.80
2018-09-11T22:47:36.237Z,16.10
2018-09-11T22:49:38.967Z,16.30
2018-09-11T22:51:41.383Z,13.03
2018-09-11T22:53:43.573Z,12.70
2018-09-11T22:55:45.754Z,11.13
2018-09-11T22:57:47.946Z,7.77
2018-09-11T22:59:50.210Z,7.73
2018-09-11T23:01:52.377Z,10.83
2018-09-11T23:03:54.579Z,7.20
2018-09-11T23:05:56.719Z,7.60
2018-09-11T23:07:58.958Z,7.87
2018-09-11T23:10:01.445Z,6.63
2018-09-11T23:12:03.662Z,6.37
2018-09-11T23:14:05.983Z,8.37
2018-09-11T23:16:08.396Z,6.83
2018-09-11T23:18:10.641Z,6.80
2018-09-11T23:20:12.810Z,6.10
2018-09-11T23:22:14.943Z,6.30
2018-09-11T23:24:17.526Z,8.23
2018-09-11T23:26:19.712Z,6.63
2018-09-11T23:28:21.959Z,7.90
2018-09-11T23:30:24.147Z,7.40
2018-09-11T23:32:26.318Z,5.83
2018-09-11T23:34:28.484Z,6.73
2018-09-11T23:36:30.695Z,4.73
2018-09-11T23:38:32.908Z,4.57
2018-09-11T23:40:35.314Z,4.63
2018-09-11T23:42:37.455Z,4.10
2018-09-11T23:44:39.595Z,5.07
2018-09-11T23:46:41.766Z,5.47
2018-09-11T23:48:43.903Z,3.43
2018-09-11T23:50:46.050Z,3.40
2018-09-11T23:52:48.234Z,4.10
2018-09-11T23:54:50.449Z,3.63
2018-09-11T23:56:52.700Z,3.47
2018-09-11T23:58:54.887Z,3.40
